Time;durP1;ratioP1;P1;durP2;ratioP2;P2;SDS_P1;SDS_P2;PMS_P1;PMS_P2;Temp;Humidity;BMP_temperature;BMP_pressure;BME280_temperature;BME280_humidity;BME280_pressure;Samples;Min_cycle;Max_cycle;Signal;HPM_P1;HPM_P2
2022/06/14 00:03:11;;;;;;;14.30;7.28;;;9.30;99.90;;;;;;5042893;28;20048;-64
2022/06/14 00:05:37;;;;;;;10.95;4.53;;;9.30;99.90;;;;;;5051946;28;20037;-64
2022/06/14 00:08:03;;;;;;;11.02;4.93;;;9.30;99.90;;;;;;5045985;28;20043;-64
2022/06/14 00:10:28;;;;;;;5.20;2.90;;;9.30;99.90;;;;;;5052110;28;20049;-64
2022/06/14 00:12:54;;;;;;;12.52;5.32;;;9.20;99.90;;;;;;5047001;28;20054;-64
2022/06/14 00:15:20;;;;;;;11.30;5.68;;;9.20;99.90;;;;;;5035105;28;20452;-64
2022/06/14 00:17:45;;;;;;;14.52;6.40;;;9.20;99.90;;;;;;5043463;28;20153;-64
2022/06/14 00:20:11;;;;;;;17.73;7.68;;;9.20;99.90;;;;;;5033001;28;20044;-64
2022/06/14 00:22:37;;;;;;;25.23;9.80;;;9.20;99.90;;;;;;5049050;28;20120;-64
2022/06/14 00:25:04;;;;;;;17.33;7.40;;;9.20;99.90;;;;;;5051829;28;20158;-64
2022/06/14 00:27:30;;;;;;;14.40;6.68;;;9.20;99.90;;;;;;5048338;28;20398;-64
2022/06/14 00:29:55;;;;;;;13.35;6.05;;;9.10;99.90;;;;;;5047905;28;20037;-64
2022/06/14 00:32:21;;;;;;;14.80;7.00;;;9.10;99.90;;;;;;5047705;28;20491;-64
2022/06/14 00:34:47;;;;;;;8.88;4.28;;;9.10;99.90;;;;;;5039815;28;20116;-64
2022/06/14 00:37:17;;;;;;;12.13;5.28;;;9.10;99.90;;;;;;5055341;28;20032;-64
2022/06/14 00:39:43;;;;;;;7.47;3.33;;;9.10;99.90;;;;;;5045370;28;20127;-64
2022/06/14 00:42:26;;;;;;;8.80;4.45;;;9.10;99.90;;;;;;5062196;28;20391;-64
2022/06/14 00:45:13;;;;;;;5.85;2.83;;;9.10;99.90;;;;;;5047642;28;20090;-64
2022/06/14 00:48:03;;;;;;;9.23;4.07;;;9.00;99.90;;;;;;5047569;28;20052;-64
2022/06/14 00:50:32;;;;;;;5.68;2.95;;;9.00;99.90;;;;;;5045316;28;20143;-64
2022/06/14 00:53:00;;;;;;;5.55;2.30;;;8.90;99.90;;;;;;5041379;28;20040;-64
2022/06/14 00:55:40;;;;;;;3.97;2.00;;;8.90;99.90;;;;;;5052775;28;20433;-64
2022/06/14 00:58:41;;;;;;;3.50;1.63;;;8.90;99.90;;;;;;5048757;28;20041;-63
2022/06/14 01:01:11;;;;;;;13.32;2.70;;;8.90;99.90;;;;;;4998681;28;20061;-64
2022/06/14 01:03:43;;;;;;;6.00;2.40;;;8.80;99.90;;;;;;5081323;28;20167;-64
2022/06/14 01:06:19;;;;;;;3.95;1.60;;;8.70;99.90;;;;;;5030401;28;20119;-64
2022/06/14 01:09:03;;;;;;;2.53;1.10;;;8.60;99.90;;;;;;5046095;28;20170;-64
2022/06/14 01:11:55;;;;;;;4.00;2.42;;;8.50;99.90;;;;;;5037133;28;20425;-64
2022/06/14 01:14:26;;;;;;;6.38;3.58;;;8.40;99.90;;;;;;5025744;28;20125;-64
2022/06/14 01:16:52;;;;;;;8.13;3.40;;;8.40;99.90;;;;;;5052606;28;20040;-64
2022/06/14 01:19:24;;;;;;;5.18;2.70;;;8.40;99.90;;;;;;5052861;28;20138;-64
2022/06/14 01:22:10;;;;;;;7.82;3.65;;;8.40;99.90;;;;;;5070516;28;20037;-64
2022/06/14 01:24:39;;;;;;;10.93;5.03;;;8.50;99.90;;;;;;5022516;28;20469;-64
2022/06/14 01:27:08;;;;;;;10.55;5.20;;;8.50;99.90;;;;;;5037335;28;20080;-64
2022/06/14 01:29:36;;;;;;;15.98;6.68;;;8.50;99.90;;;;;;5050197;28;20055;-64
2022/06/14 01:32:06;;;;;;;12.45;6.00;;;8.50;99.90;;;;;;5042317;28;20033;-64
2022/06/14 01:34:35;;;;;;;10.75;5.30;;;8.60;99.90;;;;;;5048685;28;20049;-64
2022/06/14 01:37:01;;;;;;;19.35;8.40;;;8.60;99.90;;;;;;5082964;28;20136;-64
2022/06/14 01:39:27;;;;;;;19.45;9.02;;;8.60;99.90;;;;;;5046251;28;20051;-64
2022/06/14 01:42:18;;;;;;;13.00;5.30;;;8.60;99.90;;;;;;5048968;28;20024;-64
2022/06/14 01:45:02;;;;;;;13.82;3.83;;;8.60;99.90;;;;;;5049374;28;20036;-64
2022/06/14 01:47:46;;;;;;;30.02;3.97;;;8.40;99.90;;;;;;5051449;28;20040;-64
2022/06/14 01:53:44;;;;;;;12.50;6.78;;;8.40;99.90;;;;;;5041214;28;20052;-64
2022/06/14 01:56:17;;;;;;;10.18;5.63;;;8.40;99.90;;;;;;5036318;28;20044;-64
2022/06/14 01:59:11;;;;;;;14.25;5.78;;;8.40;99.90;;;;;;5031381;28;20224;-64
2022/06/14 02:01:40;;;;;;;9.32;4.40;;;8.50;99.90;;;;;;5037143;28;20045;-64
2022/06/14 02:07:21;;;;;;;6.95;3.65;;;8.40;99.90;;;;;;5033425;28;20048;-64
2022/06/14 02:10:08;;;;;;;14.43;5.90;;;8.40;99.90;;;;;;5047703;28;20077;-64
2022/06/14 02:12:46;;;;;;;8.02;4.30;;;8.40;99.90;;;;;;5015116;28;20103;-64
2022/06/14 02:15:17;;;;;;;4.22;1.92;;;8.40;99.90;;;;;;5014916;28;20408;-64
2022/06/14 02:17:55;;;;;;;12.18;2.05;;;8.30;99.90;;;;;;5014266;28;20037;-64
2022/06/14 02:20:26;;;;;;;7.93;2.22;;;8.30;99.90;;;;;;5014398;28;20483;-63
2022/06/14 02:23:10;;;;;;;3.65;1.83;;;8.10;99.90;;;;;;5014142;28;20045;-64
2022/06/14 02:25:47;;;;;;;6.40;1.77;;;8.00;99.90;;;;;;5014789;28;20121;-64
2022/06/14 02:28:24;;;;;;;3.10;2.00;;;8.00;99.90;;;;;;5021734;28;20029;-63
2022/06/14 02:30:56;;;;;;;3.25;1.60;;;8.00;99.90;;;;;;5034336;28;20049;-64
2022/06/14 02:33:40;;;;;;;28.40;2.17;;;8.00;99.90;;;;;;5034373;28;20466;-63
2022/06/14 02:36:29;;;;;;;2.65;1.60;;;7.80;99.90;;;;;;5034108;28;20518;-64
2022/06/14 02:39:08;;;;;;;5.78;1.80;;;7.80;99.90;;;;;;5034563;28;20059;-64
2022/06/14 02:41:42;;;;;;;3.28;1.55;;;7.70;99.90;;;;;;5032300;28;20440;-64
2022/06/14 02:44:11;;;;;;;4.45;2.35;;;7.60;99.90;;;;;;5017236;28;20107;-64
2022/06/14 02:46:47;;;;;;;8.63;4.30;;;7.60;99.90;;;;;;5051459;28;20075;-64
2022/06/14 02:49:30;;;;;;;8.20;3.40;;;7.60;99.90;;;;;;5046462;28;20045;-64
2022/06/14 02:52:10;;;;;;;3.55;2.08;;;7.70;99.90;;;;;;5047863;28;20064;-63
2022/06/14 02:54:44;;;;;;;4.72;2.88;;;7.90;99.90;;;;;;5040104;28;20036;-63
2022/06/14 02:57:31;;;;;;;8.43;4.18;;;7.90;99.90;;;;;;5044849;28;20447;-63
2022/06/14 03:00:07;;;;;;;6.65;3.50;;;7.90;99.90;;;;;;5036893;28;20362;-64
2022/06/14 03:02:44;;;;;;;5.18;2.50;;;7.90;99.90;;;;;;5053164;28;20122;-63
2022/06/14 03:05:33;;;;;;;4.78;2.40;;;8.00;99.90;;;;;;5038862;28;20483;-63
2022/06/14 03:08:05;;;;;;;5.72;2.40;;;8.00;99.90;;;;;;5037983;28;20431;-63
2022/06/14 03:10:45;;;;;;;3.88;2.40;;;7.90;99.90;;;;;;5052255;28;20044;-63
2022/06/14 03:13:25;;;;;;;5.43;2.70;;;8.00;99.90;;;;;;5046961;28;20126;-63
2022/06/14 03:16:07;;;;;;;4.53;3.08;;;7.90;99.90;;;;;;5041958;28;20538;-63
2022/06/14 03:18:49;;;;;;;5.72;2.50;;;7.90;99.90;;;;;;5051099;28;20193;-63
2022/06/14 03:21:21;;;;;;;9.43;3.47;;;7.90;99.90;;;;;;5049720;28;20127;-63
2022/06/14 03:23:46;;;;;;;4.72;3.00;;;7.90;99.90;;;;;;5052267;28;20079;-64
2022/06/14 03:26:32;;;;;;;7.90;3.10;;;7.90;99.90;;;;;;5043268;28;20132;-63
2022/06/14 03:29:17;;;;;;;8.13;4.10;;;7.90;99.90;;;;;;5051371;28;20124;-63
2022/06/14 03:31:51;;;;;;;8.82;4.43;;;7.90;99.90;;;;;;5045567;28;20438;-63
2022/06/14 03:34:41;;;;;;;5.40;3.13;;;8.00;99.90;;;;;;5070782;28;20380;-63
2022/06/14 03:37:07;;;;;;;6.82;3.78;;;8.00;99.90;;;;;;5080670;28;20450;-63
2022/06/14 03:39:37;;;;;;;6.35;3.70;;;8.10;99.90;;;;;;5050145;28;20091;-63
2022/06/14 03:42:07;;;;;;;7.05;3.75;;;8.10;99.90;;;;;;5051552;28;20064;-63
2022/06/14 03:44:33;;;;;;;4.80;3.17;;;8.20;99.90;;;;;;5052178;28;20036;-63
2022/06/14 03:47:19;;;;;;;5.70;3.45;;;8.10;99.90;;;;;;5047148;28;21184;-63
2022/06/14 03:49:57;;;;;;;5.00;3.08;;;8.20;99.90;;;;;;5067825;28;20785;-62
2022/06/14 03:52:23;;;;;;;8.32;3.65;;;8.30;99.90;;;;;;5045773;28;20048;-63
2022/06/14 03:55:10;;;;;;;7.72;3.60;;;8.40;99.90;;;;;;5052249;28;20423;-63
2022/06/14 03:57:57;;;;;;;11.00;4.97;;;8.40;99.90;;;;;;5075251;28;20437;-63
2022/06/14 04:00:44;;;;;;;10.65;5.35;;;8.30;99.90;;;;;;5045057;28;20045;-63
2022/06/14 04:03:13;;;;;;;14.38;6.03;;;8.30;99.90;;;;;;5045664;28;20565;-63
2022/06/14 04:06:09;;;;;;;9.73;5.38;;;8.40;99.90;;;;;;5049218;28;20081;-63
2022/06/14 04:09:04;;;;;;;11.05;5.53;;;8.40;99.90;;;;;;5050154;28;20509;-63
2022/06/14 04:11:30;;;;;;;9.73;4.70;;;8.50;99.90;;;;;;5051671;28;20059;-63
2022/06/14 04:14:14;;;;;;;10.43;4.50;;;8.50;99.90;;;;;;5048643;28;20049;-63
2022/06/14 04:16:45;;;;;;;10.50;4.03;;;8.40;99.90;;;;;;5071657;28;20041;-63
2022/06/14 04:19:36;;;;;;;10.00;4.63;;;8.50;99.90;;;;;;5041727;28;20044;-63
2022/06/14 04:22:14;;;;;;;7.53;4.60;;;8.50;99.90;;;;;;5044015;28;20098;-63
2022/06/14 04:24:55;;;;;;;9.02;4.22;;;8.50;99.90;;;;;;5049445;28;20116;-63
2022/06/14 04:27:30;;;;;;;7.55;4.30;;;8.60;99.90;;;;;;5050249;28;20041;-63
2022/06/14 04:30:14;;;;;;;11.45;4.70;;;8.60;99.90;;;;;;5048461;28;20074;-63
2022/06/14 04:33:00;;;;;;;6.72;4.03;;;8.60;99.90;;;;;;5046359;28;20040;-63
2022/06/14 04:35:31;;;;;;;11.30;4.82;;;8.70;99.90;;;;;;5035776;28;20041;-63
2022/06/14 04:38:16;;;;;;;14.80;6.00;;;8.70;99.90;;;;;;5046124;28;20033;-63
2022/06/14 04:40:47;;;;;;;9.40;5.50;;;8.80;99.90;;;;;;5042452;28;20056;-63
2022/06/14 04:43:18;;;;;;;18.25;5.78;;;8.90;99.90;;;;;;5043176;28;20107;-63
2022/06/14 04:46:15;;;;;;;11.70;6.20;;;8.90;99.90;;;;;;5045794;28;20053;-63
2022/06/14 04:48:51;;;;;;;18.30;7.60;;;9.10;99.90;;;;;;5044758;28;20129;-63
2022/06/14 04:51:42;;;;;;;16.52;7.57;;;9.30;99.90;;;;;;5041355;28;20040;-63
2022/06/14 04:54:24;;;;;;;17.60;7.63;;;9.40;99.90;;;;;;5049838;28;20036;-63
2022/06/14 04:57:19;;;;;;;20.92;6.95;;;9.50;99.90;;;;;;5078042;28;20048;-63
2022/06/14 04:59:52;;;;;;;16.42;7.45;;;9.50;99.90;;;;;;5072938;28;20057;-63
2022/06/14 05:02:36;;;;;;;19.52;7.30;;;9.70;99.90;;;;;;5052461;28;20052;-63
2022/06/14 05:05:24;;;;;;;17.77;7.78;;;9.70;99.90;;;;;;5048311;28;20029;-63
2022/06/14 05:08:01;;;;;;;17.05;7.78;;;9.90;99.90;;;;;;5005970;28;20048;-63
2022/06/14 05:10:55;;;;;;;17.45;7.47;;;10.00;99.90;;;;;;5041190;28;20036;-63
2022/06/14 05:13:50;;;;;;;18.65;7.57;;;10.20;99.90;;;;;;5020649;28;20053;-64
2022/06/14 05:16:48;;;;;;;16.70;7.35;;;10.20;99.90;;;;;;5048952;28;20052;-64
2022/06/14 05:19:24;;;;;;;17.40;7.15;;;10.40;99.90;;;;;;5076026;28;20056;-64
2022/06/14 05:21:58;;;;;;;17.67;7.82;;;10.50;99.90;;;;;;5052184;28;20052;-64
2022/06/14 05:24:26;;;;;;;20.88;8.00;;;10.60;99.90;;;;;;5041173;28;20041;-64
2022/06/14 05:27:06;;;;;;;16.33;7.53;;;10.80;99.90;;;;;;5009239;28;20072;-65
2022/06/14 05:29:47;;;;;;;24.13;7.80;;;10.90;99.90;;;;;;5051438;28;20040;-65
2022/06/14 05:32:12;;;;;;;21.27;8.02;;;11.10;99.90;;;;;;5047103;28;20040;-64
2022/06/14 05:34:59;;;;;;;18.92;8.05;;;11.20;99.90;;;;;;5047390;28;20043;-65
2022/06/14 05:37:49;;;;;;;27.13;8.13;;;11.40;99.90;;;;;;5055723;28;20486;-65
2022/06/14 05:40:49;;;;;;;20.20;7.45;;;11.50;99.90;;;;;;5032464;28;20390;-65
2022/06/14 05:43:52;;;;;;;22.00;8.55;;;11.70;99.90;;;;;;5035557;28;20430;-65
2022/06/14 05:46:25;;;;;;;17.38;8.05;;;11.80;99.90;;;;;;5044310;28;20048;-65
2022/06/14 05:49:00;;;;;;;21.27;8.02;;;12.00;99.90;;;;;;5079270;28;20040;-65
2022/06/14 05:51:33;;;;;;;15.35;6.70;;;12.10;99.90;;;;;;5054825;28;20036;-65
2022/06/14 05:54:03;;;;;;;;;;;12.30;99.90;;;;;;5038824;28;20036;-65
2022/06/14 05:56:41;;;;;;;17.33;7.35;;;12.40;99.90;;;;;;5051080;28;19916;-65
2022/06/14 05:59:19;;;;;;;18.85;7.90;;;12.50;99.90;;;;;;5030885;28;20056;-66
2022/06/14 06:01:54;;;;;;;16.90;7.57;;;12.70;99.90;;;;;;5048969;28;20101;-65
2022/06/14 06:04:38;;;;;;;20.77;7.80;;;12.80;99.90;;;;;;5075118;28;20052;-66
2022/06/14 06:07:09;;;;;;;15.80;6.95;;;12.90;99.90;;;;;;5066852;28;20030;-66
2022/06/14 06:09:53;;;;;;;18.52;7.85;;;13.10;99.90;;;;;;5040992;28;20033;-66
2022/06/14 06:12:29;;;;;;;19.15;7.55;;;13.20;99.90;;;;;;5065951;28;20037;-65
2022/06/14 06:15:23;;;;;;;22.67;6.90;;;13.40;99.90;;;;;;5048981;28;20396;-66
2022/06/14 06:17:58;;;;;;;24.45;6.97;;;13.50;99.90;;;;;;5037533;28;20041;-66
2022/06/14 06:20:29;;;;;;;22.20;6.90;;;13.60;99.90;;;;;;5045267;28;20375;-66
2022/06/14 06:23:06;;;;;;;20.85;7.68;;;13.70;99.90;;;;;;5039976;28;20072;-66
2022/06/14 06:25:37;;;;;;;21.67;6.65;;;13.90;99.90;;;;;;5044468;28;20482;-66
2022/06/14 06:28:14;;;;;;;19.10;5.57;;;13.90;99.90;;;;;;5031556;28;20039;-66
2022/06/14 06:31:04;;;;;;;18.35;5.30;;;14.00;99.90;;;;;;5036646;28;20040;-66
2022/06/14 06:33:35;;;;;;;16.92;5.05;;;14.10;99.90;;;;;;5045473;28;20596;-66
2022/06/14 06:36:01;;;;;;;17.38;5.35;;;14.10;99.90;;;;;;5042977;28;20056;-66
2022/06/14 06:39:09;;;;;;;15.55;5.45;;;14.20;99.90;;;;;;5060795;28;20053;-66
2022/06/14 06:41:50;;;;;;;15.65;4.47;;;14.30;99.90;;;;;;5042362;28;20468;-65
2022/06/14 06:44:30;;;;;;;16.00;4.78;;;14.40;99.90;;;;;;5041970;28;20033;-65
2022/06/14 06:47:23;;;;;;;16.85;4.53;;;14.50;99.90;;;;;;5040794;28;20091;-65
2022/06/14 06:49:59;;;;;;;16.73;4.30;;;14.60;99.90;;;;;;5000869;28;20071;-66
2022/06/14 06:52:52;;;;;;;15.18;4.05;;;14.60;99.90;;;;;;5042201;28;20138;-66
2022/06/14 06:55:44;;;;;;;14.32;3.90;;;14.60;99.90;;;;;;5044579;28;20539;-65
2022/06/14 06:58:19;;;;;;;15.18;4.35;;;14.60;99.90;;;;;;5033954;28;20033;-65
2022/06/14 07:00:47;;;;;;;12.43;3.65;;;14.80;99.90;;;;;;5055125;28;20112;-65
2022/06/14 07:03:22;;;;;;;10.95;4.00;;;14.80;99.90;;;;;;5038654;28;20052;-66
2022/06/14 07:05:52;;;;;;;10.32;4.00;;;15.00;99.90;;;;;;5037732;28;20059;-66
2022/06/14 07:08:35;;;;;;;15.27;4.20;;;15.10;99.90;;;;;;5043368;28;20052;-63
2022/06/14 07:11:03;;;;;;;13.27;3.70;;;15.30;99.90;;;;;;5047665;28;20384;-65
2022/06/14 07:13:54;;;;;;;14.10;4.43;;;15.50;99.90;;;;;;5049178;28;21881;-67
2022/06/14 07:16:28;;;;;;;10.55;3.80;;;15.60;99.90;;;;;;5026685;28;20049;-66
2022/06/14 07:19:12;;;;;;;12.98;4.07;;;15.60;99.90;;;;;;5042112;28;20101;-65
2022/06/14 07:21:43;;;;;;;12.82;4.10;;;15.70;99.90;;;;;;5047500;28;20094;-65
2022/06/14 07:24:17;;;;;;;12.43;3.95;;;15.70;99.90;;;;;;5029834;28;20044;-65
2022/06/14 07:26:56;;;;;;;15.13;3.45;;;15.70;99.90;;;;;;5037420;28;20424;-65
2022/06/14 07:29:35;;;;;;;14.15;3.70;;;15.60;99.90;;;;;;5020091;28;20037;-65
2022/06/14 07:32:17;;;;;;;11.60;3.85;;;15.70;99.90;;;;;;5033089;28;20482;-66
2022/06/14 07:34:44;;;;;;;15.95;3.92;;;15.70;99.90;;;;;;5037188;28;20071;-66
2022/06/14 07:37:13;;;;;;;13.57;3.42;;;15.60;99.90;;;;;;5036388;28;20471;-63
2022/06/14 07:39:52;;;;;;;10.20;3.25;;;15.60;99.90;;;;;;5035758;28;20559;-66
2022/06/14 07:42:24;;;;;;;13.88;3.28;;;15.60;99.90;;;;;;5042515;28;20076;-65
2022/06/14 07:44:56;;;;;;;13.25;3.45;;;15.70;99.90;;;;;;5037501;28;20064;-65
2022/06/14 07:47:51;;;;;;;12.15;3.25;;;15.70;99.90;;;;;;5026810;28;20608;-64
2022/06/14 07:50:22;;;;;;;11.93;3.22;;;15.60;99.90;;;;;;5025467;28;20067;-65
2022/06/14 07:52:53;;;;;;;11.60;4.03;;;15.50;99.90;;;;;;5031800;28;20041;-65
2022/06/14 07:55:27;;;;;;;12.60;3.00;;;15.60;99.90;;;;;;5018131;28;20381;-69
2022/06/14 07:58:02;;;;;;;12.27;3.08;;;15.90;99.90;;;;;;5016857;28;20098;-65
2022/06/14 08:03:25;;;;;;;20.02;3.88;;;16.20;99.90;;;;;;5023529;28;20133;-64
2022/06/14 08:05:53;;;;;;;10.75;4.15;;;16.30;99.90;;;;;;5033427;28;20033;-67
2022/06/14 08:08:26;;;;;;;10.40;3.75;;;16.10;99.90;;;;;;5038153;28;20041;-66
2022/06/14 08:10:57;;;;;;;10.75;3.85;;;15.90;99.90;;;;;;5036347;28;20044;-67
2022/06/14 08:13:28;;;;;;;12.63;4.35;;;15.70;99.90;;;;;;5032984;28;20048;-68
2022/06/14 08:15:58;;;;;;;11.38;4.15;;;15.60;99.90;;;;;;5043260;28;20097;-68
2022/06/14 08:18:36;;;;;;;15.25;3.55;;;15.70;99.90;;;;;;5027318;28;20503;-66
2022/06/14 08:21:16;;;;;;;12.90;3.75;;;16.00;99.90;;;;;;5039499;28;20179;-67
2022/06/14 08:23:54;;;;;;;8.52;3.17;;;16.30;99.90;;;;;;5041639;28;20041;-67
2022/06/14 08:27:04;;;;;;;9.55;3.42;;;16.50;99.90;;;;;;5043538;28;20403;-68
2022/06/14 08:29:41;;;;;;;9.85;3.80;;;16.60;99.90;;;;;;5028897;28;20045;-69
2022/06/14 08:32:20;;;;;;;10.13;3.80;;;16.40;99.90;;;;;;5062028;28;20029;-69
2022/06/14 08:34:55;;;;;;;11.02;3.47;;;16.30;99.90;;;;;;5037545;28;20106;-67
2022/06/14 08:37:22;;;;;;;7.13;3.03;;;16.10;99.90;;;;;;5048041;28;20045;-67
2022/06/14 08:39:54;;;;;;;11.02;3.22;;;15.90;99.90;;;;;;5040699;28;20048;-67
2022/06/14 08:42:31;;;;;;;8.70;3.08;;;15.80;99.90;;;;;;5045071;28;20045;-66
2022/06/14 08:45:08;;;;;;;7.85;3.08;;;15.70;99.90;;;;;;5035599;28;20040;-69
2022/06/14 08:47:52;;;;;;;12.60;3.58;;;15.70;99.90;;;;;;5029214;28;20047;-70
2022/06/14 08:50:42;;;;;;;13.55;3.67;;;15.80;99.90;;;;;;5064685;28;20049;-69
2022/06/14 08:53:40;;;;;;;11.38;2.90;;;16.10;99.90;;;;;;5025734;28;20040;-68
2022/06/14 08:56:50;;;;;;;8.95;3.15;;;16.50;99.90;;;;;;5028673;28;20045;-69
2022/06/14 08:59:31;;;;;;;9.13;3.25;;;17.00;99.90;;;;;;5030797;28;20056;-67
2022/06/14 09:02:09;;;;;;;12.65;3.60;;;17.30;99.90;;;;;;5049873;28;20544;-67
2022/06/14 09:05:33;;;;;;;12.38;3.90;;;17.40;99.90;;;;;;5045750;28;20076;-68
2022/06/14 09:08:32;;;;;;;7.93;3.45;;;17.30;99.90;;;;;;4973095;28;20061;-68
2022/06/14 09:11:19;;;;;;;7.63;2.42;;;17.10;99.90;;;;;;4965588;28;20050;-71
2022/06/14 09:14:07;;;;;;;11.80;2.97;;;16.90;99.90;;;;;;5044275;28;20080;-67
2022/06/14 09:16:57;;;;;;;9.05;2.60;;;16.80;99.90;;;;;;5031978;28;20048;-69
2022/06/14 09:19:52;;;;;;;6.63;2.47;;;16.80;99.90;;;;;;5046351;28;20160;-68
2022/06/14 09:22:26;;;;;;;10.30;2.58;;;17.00;99.90;;;;;;5031563;28;20906;-68
2022/06/14 09:24:55;;;;;;;9.68;2.38;;;17.30;99.90;;;;;;5038386;28;20232;-67
2022/06/14 09:27:56;;;;;;;6.82;2.13;;;17.40;99.90;;;;;;5042036;28;20098;-68
2022/06/14 09:30:43;;;;;;;9.73;2.60;;;17.50;99.90;;;;;;5036538;28;20051;-69
2022/06/14 09:33:15;;;;;;;6.40;2.58;;;17.60;99.90;;;;;;5069998;28;20028;-66
2022/06/14 09:36:30;;;;;;;7.30;3.10;;;17.40;99.90;;;;;;5028280;28;20071;-67
2022/06/14 09:39:17;;;;;;;7.85;3.10;;;17.20;99.90;;;;;;5006684;28;20453;-68
2022/06/14 09:42:01;;;;;;;10.65;2.60;;;17.00;99.90;;;;;;5048087;28;20093;-69
2022/06/14 09:44:39;;;;;;;7.70;3.10;;;16.90;99.90;;;;;;5045701;28;20041;-68
2022/06/14 09:47:29;;;;;;;9.57;3.10;;;16.70;99.90;;;;;;5047880;28;20041;-68
2022/06/14 09:50:16;;;;;;;6.35;2.63;;;16.70;99.90;;;;;;5050255;28;20044;-67
2022/06/14 09:53:22;;;;;;;12.20;2.78;;;16.70;99.90;;;;;;5048570;28;20052;-67
2022/06/14 09:56:12;;;;;;;8.25;2.60;;;16.90;99.90;;;;;;5067584;28;20105;-68
2022/06/14 09:58:37;;;;;;;7.00;2.60;;;17.30;99.90;;;;;;5042733;28;20045;-70
2022/06/14 10:01:22;;;;;;;9.70;2.83;;;17.70;99.90;;;;;;5045518;28;20444;-68
2022/06/14 10:04:05;;;;;;;8.15;2.70;;;18.00;99.90;;;;;;5039028;28;20033;-71
2022/06/14 10:06:31;;;;;;;7.22;2.38;;;18.20;99.90;;;;;;5030062;28;20068;-66
2022/06/14 10:09:18;;;;;;;7.45;2.30;;;18.30;99.90;;;;;;5067473;28;20464;-68
2022/06/14 10:11:58;;;;;;;7.70;2.15;;;18.20;99.90;;;;;;5032085;28;20068;-69
2022/06/14 10:14:29;;;;;;;7.32;2.35;;;18.20;99.90;;;;;;5027406;28;20045;-68
2022/06/14 10:16:55;;;;;;;8.37;2.33;;;18.30;99.90;;;;;;5064002;28;20057;-67
2022/06/14 10:19:52;;;;;;;6.95;2.45;;;18.50;99.90;;;;;;5027690;28;20049;-67
2022/06/14 10:22:51;;;;;;;6.25;2.17;;;18.80;99.90;;;;;;5027725;28;20041;-69
2022/06/14 10:25:32;;;;;;;7.63;2.00;;;19.00;99.90;;;;;;5061165;28;20499;-66
2022/06/14 10:28:12;;;;;;;6.25;2.20;;;19.10;99.90;;;;;;5065771;28;20407;-70
2022/06/14 10:30:52;;;;;;;8.60;2.92;;;19.00;99.90;;;;;;5066596;28;20040;-66
2022/06/14 10:33:22;;;;;;;9.13;2.65;;;18.90;99.90;;;;;;5041578;28;20176;-70
2022/06/14 10:36:16;;;;;;;8.88;2.33;;;18.80;99.90;;;;;;5041006;28;20388;-68
2022/06/14 10:38:56;;;;;;;5.90;2.63;;;18.90;99.90;;;;;;5034569;28;20041;-68
2022/06/14 10:41:34;;;;;;;9.43;2.50;;;19.10;99.90;;;;;;5070768;28;20040;-68
2022/06/14 10:44:15;;;;;;;9.70;2.72;;;19.30;99.90;;;;;;5031554;28;20120;-67
2022/06/14 10:47:04;;;;;;;5.43;2.50;;;19.40;99.90;;;;;;5039643;28;20087;-67
2022/06/14 10:49:43;;;;;;;7.97;2.80;;;19.30;99.90;;;;;;5025692;28;20030;-68
2022/06/14 10:52:34;;;;;;;9.35;3.00;;;19.30;99.90;;;;;;5043358;28;20034;-68
2022/06/14 10:55:37;;;;;;;5.88;2.58;;;19.50;99.90;;;;;;5042007;28;20168;-66
2022/06/14 10:58:25;;;;;;;7.35;2.92;;;19.60;99.90;;;;;;5021726;28;20042;-66
2022/06/14 11:01:07;;;;;;;9.73;3.13;;;19.60;99.90;;;;;;5043758;28;20052;-66
2022/06/14 11:03:52;;;;;;;;;;;19.70;99.90;;;;;;5053095;28;20038;-67
2022/06/14 11:06:20;;;;;;;6.00;2.90;;;19.90;99.90;;;;;;5019030;28;19967;-67
2022/06/14 11:09:01;;;;;;;10.02;3.60;;;20.10;99.90;;;;;;5022996;28;20040;-66
2022/06/14 11:11:45;;;;;;;8.65;3.30;;;20.20;99.90;;;;;;5021586;28;20049;-67
2022/06/14 11:14:42;;;;;;;8.55;3.08;;;20.20;99.90;;;;;;5041214;28;20591;-69
2022/06/14 11:17:37;;;;;;;8.32;3.00;;;20.30;99.90;;;;;;5049602;28;20041;-66
2022/06/14 11:20:18;;;;;;;5.75;2.88;;;20.50;99.90;;;;;;5020904;28;20037;-67
2022/06/14 11:22:51;;;;;;;9.25;2.80;;;20.60;99.90;;;;;;5020769;28;20040;-66
2022/06/14 11:25:37;;;;;;;7.43;2.65;;;20.40;99.90;;;;;;5021680;28;20033;-66
2022/06/14 11:28:25;;;;;;;7.47;3.05;;;20.20;99.90;;;;;;5053349;28;20037;-66
2022/06/14 11:31:11;;;;;;;7.63;2.95;;;19.60;99.90;;;;;;5047396;28;20107;-67
2022/06/14 11:34:03;;;;;;;9.00;3.10;;;19.40;99.90;;;;;;5026334;28;20495;-66
2022/06/14 11:37:08;;;;;;;7.38;2.90;;;19.30;99.90;;;;;;5042403;28;20088;-65
2022/06/14 11:39:42;;;;;;;9.75;2.80;;;19.40;99.90;;;;;;5045258;28;20045;-66
2022/06/14 11:42:23;;;;;;;7.38;2.45;;;19.40;99.90;;;;;;5049672;28;20040;-66
2022/06/14 11:45:05;;;;;;;7.80;2.80;;;19.50;99.90;;;;;;5054088;28;20100;-67
2022/06/14 11:47:46;;;;;;;9.02;3.00;;;19.50;99.90;;;;;;5016774;28;20041;-68
2022/06/14 11:50:30;;;;;;;9.23;3.25;;;19.60;99.90;;;;;;5010413;28;20395;-67
2022/06/14 11:53:06;;;;;;;10.52;3.15;;;19.50;99.90;;;;;;5011101;28;20397;-66
2022/06/14 11:55:48;;;;;;;10.55;3.40;;;19.60;99.90;;;;;;5019025;28;20041;-67
2022/06/14 11:58:19;;;;;;;8.25;2.90;;;19.50;99.90;;;;;;5029014;28;20040;-65
2022/06/14 12:01:21;;;;;;;9.63;2.80;;;19.40;99.90;;;;;;5023677;28;20048;-66
2022/06/14 12:04:15;;;;;;;6.17;3.17;;;19.30;99.90;;;;;;5011319;28;20043;-65
2022/06/14 12:06:58;;;;;;;9.25;3.08;;;19.20;99.90;;;;;;5001498;28;20084;-67
2022/06/14 12:09:33;;;;;;;8.02;2.70;;;19.30;99.90;;;;;;4995225;28;20451;-66
2022/06/14 12:12:26;;;;;;;6.82;2.78;;;19.60;99.90;;;;;;5002894;28;20448;-68
2022/06/14 12:14:55;;;;;;;;;;;19.80;99.90;;;;;;5019889;28;20052;-67
2022/06/14 12:17:33;;;;;;;6.13;3.13;;;19.90;99.90;;;;;;5053621;28;20313;-67
2022/06/14 12:20:05;;;;;;;7.25;3.13;;;20.00;99.90;;;;;;5015820;28;20484;-66
2022/06/14 12:22:48;;;;;;;9.13;3.20;;;20.10;99.90;;;;;;5020448;28;20033;-67
2022/06/14 12:28:49;;;;;;;9.30;3.10;;;20.00;99.90;;;;;;5000263;28;20065;-67
2022/06/14 12:31:41;;;;;;;8.80;3.00;;;20.10;99.90;;;;;;5028665;28;20453;-66
2022/06/14 12:34:16;;;;;;;9.65;3.08;;;20.20;99.90;;;;;;4984647;28;20503;-65
2022/06/14 12:37:19;;;;;;;10.32;2.38;;;20.20;99.90;;;;;;5019280;28;20129;-66
2022/06/14 12:39:54;;;;;;;9.05;2.92;;;20.10;99.90;;;;;;5021237;28;20068;-67
2022/06/14 12:42:40;;;;;;;8.48;3.22;;;19.90;99.90;;;;;;5016628;28;20415;-66
2022/06/14 12:45:19;;;;;;;10.10;3.05;;;19.80;99.90;;;;;;5014780;28;20091;-66
2022/06/14 12:48:18;;;;;;;8.73;2.70;;;19.60;99.90;;;;;;5010709;28;20036;-66
2022/06/14 12:50:48;;;;;;;3.35;2.35;;;19.50;99.90;;;;;;4994985;28;20088;-66
2022/06/14 12:53:17;;;;;;;6.18;2.65;;;19.50;99.90;;;;;;5024679;28;20051;-66
2022/06/14 12:55:59;;;;;;;8.30;2.80;;;19.80;99.90;;;;;;5020943;28;20045;-66
2022/06/14 12:58:30;;;;;;;8.43;2.70;;;20.10;99.90;;;;;;5006118;28;20045;-65
2022/06/14 13:01:02;;;;;;;11.20;3.10;;;20.20;99.90;;;;;;5036110;28;20076;-66
2022/06/14 13:03:52;;;;;;;6.50;3.20;;;20.30;99.90;;;;;;4997981;28;20719;-65
2022/06/14 13:06:55;;;;;;;7.88;2.95;;;20.30;99.90;;;;;;5004257;28;20057;-65
2022/06/14 13:09:38;;;;;;;7.53;3.10;;;20.10;99.90;;;;;;4997606;28;20038;-66
2022/06/14 13:12:17;;;;;;;9.40;2.97;;;20.00;99.90;;;;;;5005803;28;20487;-66
2022/06/14 13:14:52;;;;;;;4.53;2.45;;;19.90;99.90;;;;;;5000218;28;20069;-66
2022/06/14 13:17:45;;;;;;;6.88;3.28;;;19.90;99.90;;;;;;5010103;28;20041;-66
2022/06/14 13:20:26;;;;;;;;;;;20.10;99.90;;;;;;5006930;28;20045;-67
2022/06/14 13:23:02;;;;;;;7.00;2.60;;;20.10;99.90;;;;;;5040373;28;19917;-68
2022/06/14 13:26:05;;;;;;;6.82;3.10;;;20.10;99.90;;;;;;5020670;28;20068;-67
2022/06/14 13:29:01;;;;;;;7.40;2.83;;;19.90;99.90;;;;;;5007034;28;20124;-66
2022/06/14 13:31:30;;;;;;;5.95;2.70;;;19.90;99.90;;;;;;5006849;28;20052;-66
2022/06/14 13:34:20;;;;;;;9.00;3.00;;;19.90;99.90;;;;;;5004361;28;20045;-67
2022/06/14 13:36:55;;;;;;;6.00;2.80;;;19.80;99.90;;;;;;4998169;28;20042;-67
2022/06/14 13:39:28;;;;;;;6.32;2.88;;;19.90;99.90;;;;;;4999307;28;20470;-67
2022/06/14 13:42:03;;;;;;;7.18;2.80;;;19.90;99.90;;;;;;4999662;28;20040;-66
2022/06/14 13:44:47;;;;;;;7.80;3.28;;;19.90;99.90;;;;;;5009480;28;20033;-70
2022/06/14 13:47:29;;;;;;;7.60;2.80;;;20.10;99.90;;;;;;5019177;28;20105;-69
2022/06/14 13:50:25;;;;;;;4.95;2.60;;;20.00;99.90;;;;;;5044913;28;20040;-66
2022/06/14 13:53:02;;;;;;;4.93;2.38;;;20.00;99.90;;;;;;5018644;28;20403;-67
2022/06/14 13:55:45;;;;;;;8.10;2.63;;;20.00;99.90;;;;;;5034236;28;20695;-68
2022/06/14 13:58:23;;;;;;;7.55;2.72;;;20.00;99.90;;;;;;5033864;28;20463;-68
2022/06/14 14:01:11;;;;;;;6.28;2.55;;;20.00;99.90;;;;;;5036356;28;20040;-67
2022/06/14 14:03:43;;;;;;;5.38;2.58;;;20.00;99.90;;;;;;5033985;28;20083;-67
2022/06/14 14:06:18;;;;;;;5.40;2.70;;;20.00;99.90;;;;;;5026637;28;20049;-67
2022/06/14 14:08:47;;;;;;;3.90;2.45;;;20.10;99.90;;;;;;5057773;28;20080;-67